Time;durP1;ratioP1;P1;durP2;ratioP2;P2;SDS_P1;SDS_P2;PMS_P1;PMS_P2;Temp;Humidity;BMP_temperature;BMP_pressure;BME280_temperature;BME280_humidity;BME280_pressure;Samples;Min_cycle;Max_cycle;Signal;HPM_P1;HPM_P2
2023/06/24 00:00:46;;;;;;;;;;;17.30;99.90;;;;;;5015797;28;20420;-66
2023/06/24 00:03:18;;;;;;;;;;;17.20;99.90;;;;;;5017755;28;19932;-66
2023/06/24 00:05:50;;;;;;;;;;;17.20;99.90;;;;;;5020187;28;19929;-66
2023/06/24 00:08:22;;;;;;;;;;;17.20;99.90;;;;;;5019365;28;19930;-66
2023/06/24 00:10:54;;;;;;;;;;;17.10;99.90;;;;;;5012662;28;19929;-66
2023/06/24 00:13:26;;;;;;;;;;;17.10;99.90;;;;;;5023944;28;20316;-66
2023/06/24 00:15:52;;;;;;;;;;;17.20;99.90;;;;;;5024729;28;19929;-66
2023/06/24 00:18:29;;;;;;;;;;;17.10;99.90;;;;;;5029503;28;20278;-66
2023/06/24 00:20:56;;;;;;;;;;;17.10;99.90;;;;;;5022330;28;19936;-66
2023/06/24 00:23:26;;;;;;;;;;;17.10;99.90;;;;;;5028206;28;19945;-66
2023/06/24 00:25:58;;;;;;;;;;;17.10;99.90;;;;;;5021232;28;19929;-66
2023/06/24 00:28:29;;;;;;;;;;;17.10;99.90;;;;;;5018509;28;19979;-66
2023/06/24 00:31:02;;;;;;;;;;;17.20;99.90;;;;;;5021953;28;19964;-66
2023/06/24 00:33:35;;;;;;;;;;;17.20;99.90;;;;;;5028252;28;20389;-66
2023/06/24 00:36:11;;;;;;;;;;;17.20;99.90;;;;;;5032043;28;19968;-66
2023/06/24 00:38:43;;;;;;;;;;;17.10;99.90;;;;;;5028942;28;19933;-66
2023/06/24 00:41:19;;;;;;;;;;;17.10;99.90;;;;;;5032056;28;19953;-66
2023/06/24 00:43:46;;;;;;;;;;;17.10;99.90;;;;;;5030502;28;20468;-66
2023/06/24 00:46:19;;;;;;;;;;;17.00;99.90;;;;;;5023356;28;19926;-66
2023/06/24 00:48:54;;;;;;;;;;;17.00;99.90;;;;;;5030299;28;19925;-66
2023/06/24 00:51:30;;;;;;;;;;;17.00;99.90;;;;;;5017533;28;19979;-66
2023/06/24 00:54:02;;;;;;;;;;;17.00;99.90;;;;;;5029742;28;19925;-66
2023/06/24 00:56:30;;;;;;;;;;;17.00;99.90;;;;;;5030567;28;19925;-65
2023/06/24 00:59:02;;;;;;;;;;;17.00;99.90;;;;;;5031369;28;20413;-67
2023/06/24 01:01:35;;;;;;;;;;;17.00;99.90;;;;;;5026853;28;19926;-66
2023/06/24 01:04:07;;;;;;;;;;;17.00;99.90;;;;;;5029012;28;19926;-66
2023/06/24 01:06:43;;;;;;;;;;;17.10;99.90;;;;;;5029257;28;19935;-66
2023/06/24 01:09:10;;;;;;;;;;;17.10;99.90;;;;;;5021021;28;19929;-66
2023/06/24 01:11:42;;;;;;;;;;;17.10;99.90;;;;;;5021831;28;20420;-66
2023/06/24 01:14:13;;;;;;;;;;;17.10;99.90;;;;;;5023368;28;19933;-66
2023/06/24 01:16:54;;;;;;;;;;;17.10;99.90;;;;;;5024611;28;19929;-66
2023/06/24 01:19:38;;;;;;;;;;;17.00;99.90;;;;;;5013617;28;20317;-67
2023/06/24 01:22:29;;;;;;;;;;;17.10;99.90;;;;;;5026281;28;20312;-66
2023/06/24 01:25:01;;;;;;;;;;;17.10;99.90;;;;;;5027152;28;19933;-66
2023/06/24 01:27:37;;;;;;;;;;;17.20;99.90;;;;;;5028325;28;20380;-66
2023/06/24 01:30:17;;;;;;;;;;;17.10;99.90;;;;;;5028868;28;20027;-66
2023/06/24 01:33:03;;;;;;;;;;;17.00;99.90;;;;;;5021868;28;19926;-66
2023/06/24 01:35:35;;;;;;;;;;;16.90;99.90;;;;;;5015954;28;20386;-66
2023/06/24 01:38:09;;;;;;;;;;;16.90;99.90;;;;;;5015713;28;20031;-66
2023/06/24 01:40:44;;;;;;;;;;;16.80;99.90;;;;;;5017002;28;19937;-66
2023/06/24 01:43:13;;;;;;;;;;;16.80;99.90;;;;;;5011766;28;19929;-66
2023/06/24 01:45:47;;;;;;;;;;;16.70;99.90;;;;;;5025188;28;19968;-66
2023/06/24 01:48:25;;;;;;;;;;;16.80;99.90;;;;;;5009496;28;19956;-66
2023/06/24 01:50:58;;;;;;;;;;;16.80;99.90;;;;;;5029008;28;20011;-67
2023/06/24 01:53:36;;;;;;;;;;;16.70;99.90;;;;;;5021263;28;19935;-66
2023/06/24 01:56:10;;;;;;;;;;;16.60;99.90;;;;;;5028183;28;20489;-66
2023/06/24 01:58:45;;;;;;;;;;;16.50;99.90;;;;;;5014079;28;19929;-66
2023/06/24 02:01:17;;;;;;;;;;;16.40;99.90;;;;;;5014268;28;20026;-66
2023/06/24 02:03:49;;;;;;;;;;;16.50;99.90;;;;;;5029699;28;20453;-66
2023/06/24 02:06:17;;;;;;;;;;;16.50;99.90;;;;;;5029438;28;19932;-66
2023/06/24 02:08:50;;;;;;;;;;;16.50;99.90;;;;;;5028117;28;19925;-66
2023/06/24 02:11:23;;;;;;;;;;;16.50;99.90;;;;;;5028273;28;19925;-66
2023/06/24 02:13:51;;;;;;;;;;;16.60;99.90;;;;;;5028666;28;20362;-66
2023/06/24 02:16:20;;;;;;;;;;;16.60;99.90;;;;;;5026508;28;19929;-66
2023/06/24 02:18:48;;;;;;;;;;;16.60;99.90;;;;;;5024059;28;19925;-66
2023/06/24 02:21:20;;;;;;;;;;;16.50;99.90;;;;;;5016413;28;19929;-66
2023/06/24 02:23:53;;;;;;;;;;;16.30;99.90;;;;;;5035432;28;20025;-66
2023/06/24 02:26:20;;;;;;;;;;;16.20;99.90;;;;;;5023915;28;20389;-66
2023/06/24 02:28:52;;;;;;;;;;;16.20;99.90;;;;;;5028954;28;19925;-66
2023/06/24 02:31:19;;;;;;;;;;;16.30;99.90;;;;;;5025727;28;19929;-66
2023/06/24 02:33:51;;;;;;;;;;;16.30;99.90;;;;;;5026785;28;19930;-66
2023/06/24 02:36:18;;;;;;;;;;;16.40;99.90;;;;;;5026493;28;20019;-66
2023/06/24 02:38:50;;;;;;;;;;;16.50;99.90;;;;;;5019334;28;19929;-66
2023/06/24 02:41:17;;;;;;;;;;;16.50;99.90;;;;;;5025992;28;19972;-66
2023/06/24 02:43:49;;;;;;;;;;;16.50;99.90;;;;;;5021762;28;19925;-67
2023/06/24 02:46:16;;;;;;;;;;;16.50;99.90;;;;;;5023295;28;19929;-65
2023/06/24 02:48:48;;;;;;;;;;;16.50;99.90;;;;;;5022396;28;19932;-66
2023/06/24 02:51:20;;;;;;;;;;;16.50;99.90;;;;;;5027466;28;19975;-66
2023/06/24 02:53:52;;;;;;;;;;;16.50;99.90;;;;;;5025622;28;19933;-66
2023/06/24 02:56:27;;;;;;;;;;;16.50;99.90;;;;;;5011429;28;20393;-66
2023/06/24 02:58:59;;;;;;;;;;;16.60;99.90;;;;;;5027477;28;19929;-66
2023/06/24 03:01:34;;;;;;;;;;;16.50;99.90;;;;;;5026213;28;19930;-66
2023/06/24 03:04:07;;;;;;;;;;;16.50;99.90;;;;;;5020112;28;19929;-66
2023/06/24 03:06:40;;;;;;;;;;;16.50;99.90;;;;;;5020761;28;19925;-66
2023/06/24 03:09:12;;;;;;;;;;;16.60;99.90;;;;;;5028155;28;19925;-66
2023/06/24 03:11:40;;;;;;;;;;;16.50;99.90;;;;;;5022614;28;19976;-66
2023/06/24 03:14:19;;;;;;;;;;;16.40;99.90;;;;;;5017027;28;20447;-66
2023/06/24 03:16:52;;;;;;;;;;;16.20;99.90;;;;;;5022248;28;20032;-66
2023/06/24 03:19:21;;;;;;;;;;;16.30;99.90;;;;;;5027068;28;19929;-65
2023/06/24 03:21:53;;;;;;;;;;;16.30;99.90;;;;;;5017512;28;19925;-66
2023/06/24 03:24:25;;;;;;;;;;;16.20;99.90;;;;;;5026606;28;19933;-66
2023/06/24 03:26:57;;;;;;;;;;;16.20;99.90;;;;;;5019556;28;19969;-65
2023/06/24 03:29:36;;;;;;;;;;;16.20;99.90;;;;;;5019407;28;20143;-66
2023/06/24 03:32:11;;;;;;;;;;;16.30;99.90;;;;;;5028067;28;19925;-66
2023/06/24 03:34:43;;;;;;;;;;;16.30;99.90;;;;;;5007699;28;19932;-66
2023/06/24 03:37:16;;;;;;;;;;;16.40;99.90;;;;;;5020806;28;20019;-65
2023/06/24 03:39:48;;;;;;;;;;;16.50;99.90;;;;;;5021060;28;19929;-66
2023/06/24 03:42:21;;;;;;;;;;;16.50;99.90;;;;;;5027247;28;19960;-65
2023/06/24 03:44:52;;;;;;;;;;;16.40;99.90;;;;;;5018993;28;19975;-65
2023/06/24 03:47:24;;;;;;;;;;;16.30;99.90;;;;;;5029856;28;20016;-65
2023/06/24 03:49:51;;;;;;;;;;;16.30;99.90;;;;;;5024065;28;19929;-66
2023/06/24 03:52:22;;;;;;;;;;;16.30;99.90;;;;;;5021335;28;20412;-66
2023/06/24 03:54:49;;;;;;;;;;;16.20;99.90;;;;;;5021035;28;20020;-66
2023/06/24 03:57:22;;;;;;;;;;;16.20;99.90;;;;;;5032026;28;19964;-66
2023/06/24 03:59:48;;;;;;;;;;;16.20;99.90;;;;;;5031513;28;19925;-65
2023/06/24 04:02:15;;;;;;;;;;;16.20;99.90;;;;;;5015369;28;19936;-65
2023/06/24 04:04:50;;;;;;;;;;;16.30;99.90;;;;;;5020522;28;20024;-65
2023/06/24 04:07:27;;;;;;;;;;;16.30;99.90;;;;;;5029693;28;19940;-66
2023/06/24 04:09:59;;;;;;;;;;;16.30;99.90;;;;;;5030290;28;20433;-66
2023/06/24 04:12:30;;;;;;;;;;;16.20;99.90;;;;;;5016239;28;19927;-66
2023/06/24 04:15:03;;;;;;;;;;;16.20;99.90;;;;;;5028923;28;20018;-66
2023/06/24 04:17:35;;;;;;;;;;;16.10;99.90;;;;;;5024587;28;19929;-65
2023/06/24 04:20:08;;;;;;;;;;;16.10;99.90;;;;;;5028432;28;19929;-65
2023/06/24 04:22:41;;;;;;;;;;;16.20;99.90;;;;;;5041605;28;19929;-66
2023/06/24 04:25:08;;;;;;;;;;;16.20;99.90;;;;;;5030008;28;20012;-66
2023/06/24 04:27:40;;;;;;;;;;;16.20;99.90;;;;;;5024047;28;19973;-66
2023/06/24 04:30:12;;;;;;;;;;;16.30;99.90;;;;;;5019817;28;19929;-66
2023/06/24 04:32:39;;;;;;;;;;;16.30;99.90;;;;;;5029191;28;19949;-66
2023/06/24 04:35:10;;;;;;;;;;;16.40;99.90;;;;;;5014878;28;19933;-66
2023/06/24 04:37:43;;;;;;;;;;;16.40;99.90;;;;;;5022792;28;19929;-66
2023/06/24 04:40:14;;;;;;;;;;;16.40;99.90;;;;;;5024194;28;19941;-65
2023/06/24 04:42:46;;;;;;;;;;;16.50;99.90;;;;;;5029345;28;19936;-66
2023/06/24 04:45:18;;;;;;;;;;;16.50;99.90;;;;;;5027042;28;19929;-66
2023/06/24 04:47:51;;;;;;;;;;;16.50;99.90;;;;;;5030420;28;19929;-66
2023/06/24 04:50:17;;;;;;;;;;;16.50;99.90;;;;;;5023480;28;20016;-66
2023/06/24 04:52:44;;;;;;;;;;;16.50;99.90;;;;;;5020712;28;20016;-66
2023/06/24 04:55:16;;;;;;;;;;;16.60;99.90;;;;;;5016506;28;19925;-66
2023/06/24 04:57:48;;;;;;;;;;;16.60;99.90;;;;;;5018439;28;19931;-66
2023/06/24 05:00:22;;;;;;;;;;;16.60;99.90;;;;;;5016647;28;20413;-66
2023/06/24 05:02:54;;;;;;;;;;;16.70;99.90;;;;;;5021874;28;19940;-66
2023/06/24 05:05:26;;;;;;;;;;;16.70;99.90;;;;;;5029415;28;19931;-66
2023/06/24 05:07:53;;;;;;;;;;;16.70;99.90;;;;;;5026956;28;19992;-66
2023/06/24 05:10:25;;;;;;;;;;;16.80;99.90;;;;;;5025129;28;19929;-65
2023/06/24 05:12:57;;;;;;;;;;;16.80;99.90;;;;;;5023032;28;20376;-66
2023/06/24 05:15:28;;;;;;;;;;;16.80;99.90;;;;;;5020524;28;19931;-65
2023/06/24 05:18:00;;;;;;;;;;;16.80;99.90;;;;;;5026346;28;19925;-66
2023/06/24 05:20:27;;;;;;;;;;;16.80;99.90;;;;;;5027999;28;19925;-66
2023/06/24 05:22:59;;;;;;;;;;;16.80;99.90;;;;;;5031546;28;19929;-66
2023/06/24 05:25:31;;;;;;;;;;;16.80;99.90;;;;;;5025569;28;19936;-66
2023/06/24 05:28:03;;;;;;;;;;;16.80;99.90;;;;;;5026594;28;19932;-65
2023/06/24 05:30:35;;;;;;;;;;;16.80;99.90;;;;;;5023453;28;20405;-66
2023/06/24 05:33:06;;;;;;;;;;;16.80;99.90;;;;;;5026261;28;20316;-66
2023/06/24 05:35:33;;;;;;;;;;;16.80;99.90;;;;;;5025117;28;20391;-66
2023/06/24 05:38:05;;;;;;;;;;;16.80;99.90;;;;;;5025154;28;19975;-65
2023/06/24 05:40:36;;;;;;;;;;;16.90;99.90;;;;;;5024969;28;20424;-66
2023/06/24 05:43:08;;;;;;;;;;;17.00;99.90;;;;;;5026875;28;19931;-66
2023/06/24 05:45:40;;;;;;;;;;;17.00;99.90;;;;;;5028651;28;19932;-66
2023/06/24 05:48:07;;;;;;;;;;;17.10;99.90;;;;;;5027197;28;20036;-65
2023/06/24 05:50:38;;;;;;;;;;;17.10;99.90;;;;;;5030596;28;19936;-66
2023/06/24 05:53:10;;;;;;;;;;;17.10;99.90;;;;;;5021977;28;20314;-66
2023/06/24 05:55:42;;;;;;;;;;;17.20;99.90;;;;;;5026601;28;19926;-66
2023/06/24 05:58:14;;;;;;;;;;;17.20;99.90;;;;;;5026181;28;19926;-66
2023/06/24 06:00:45;;;;;;;;;;;17.30;99.90;;;;;;5022062;28;19926;-66
2023/06/24 06:03:17;;;;;;;;;;;17.30;99.90;;;;;;5025481;28;19929;-66
2023/06/24 06:05:48;;;;;;;;;;;17.40;99.90;;;;;;5025806;28;19932;-66
2023/06/24 06:08:20;;;;;;;;;;;17.40;99.90;;;;;;5027267;28;19936;-65
2023/06/24 06:10:52;;;;;;;;;;;17.50;99.90;;;;;;5024421;28;19925;-66
2023/06/24 06:13:24;;;;;;;;;;;17.50;99.90;;;;;;5022030;28;20040;-66
2023/06/24 06:15:56;;;;;;;;;;;17.60;99.90;;;;;;5026461;28;20405;-66
2023/06/24 06:18:27;;;;;;;;;;;17.60;99.90;;;;;;5027684;28;20328;-65
2023/06/24 06:20:59;;;;;;;;;;;17.70;99.90;;;;;;5021989;28;20389;-68
2023/06/24 06:23:27;;;;;;;;;;;17.60;99.90;;;;;;5022878;28;19972;-66
2023/06/24 06:25:59;;;;;;;;;;;17.70;99.90;;;;;;5023800;28;20396;-66
2023/06/24 06:28:31;;;;;;;;;;;17.80;99.90;;;;;;5027544;28;19935;-65
2023/06/24 06:31:02;;;;;;;;;;;17.80;99.90;;;;;;5025880;28;19925;-67
2023/06/24 06:33:34;;;;;;;;;;;17.80;99.90;;;;;;5022498;28;19936;-66
2023/06/24 06:36:06;;;;;;;;;;;17.90;99.90;;;;;;5024497;28;19934;-66
2023/06/24 06:38:38;;;;;;;;;;;17.90;99.90;;;;;;5022551;28;19930;-66
2023/06/24 06:41:10;;;;;;;;;;;18.00;99.90;;;;;;5026016;28;20381;-66
2023/06/24 06:43:41;;;;;;;;;;;18.00;99.90;;;;;;5017674;28;20006;-66
2023/06/24 06:46:13;;;;;;;;;;;18.10;99.90;;;;;;5021508;28;20756;-66
2023/06/24 06:48:40;;;;;;;;;;;18.10;99.90;;;;;;5021522;28;19938;-66
2023/06/24 06:51:12;;;;;;;;;;;18.20;99.90;;;;;;5024487;28;20012;-66
2023/06/24 06:53:44;;;;;;;;;;;18.30;99.90;;;;;;5022115;28;19930;-66
2023/06/24 06:56:16;;;;;;;;;;;18.30;99.90;;;;;;5023110;28;19929;-66
2023/06/24 06:58:48;;;;;;;;;;;18.40;99.90;;;;;;5020537;28;20401;-66
2023/06/24 07:01:15;;;;;;;;;;;18.50;99.90;;;;;;5023040;28;20305;-66
2023/06/24 07:03:49;;;;;;;;;;;18.50;99.90;;;;;;5015282;28;20012;-66
2023/06/24 07:06:20;;;;;;;;;;;18.70;99.90;;;;;;5028992;28;19929;-67
2023/06/24 07:08:52;;;;;;;;;;;18.80;99.90;;;;;;5022328;28;19935;-66
2023/06/24 07:11:24;;;;;;;;;;;18.80;99.90;;;;;;5021455;28;19934;-66
2023/06/24 07:13:56;;;;;;;;;;;18.80;99.90;;;;;;5025253;28;20392;-65
2023/06/24 07:16:28;;;;;;;;;;;18.90;99.90;;;;;;5021783;28;19932;-66
2023/06/24 07:18:59;;;;;;;;;;;19.00;99.90;;;;;;5022358;28;19929;-66
2023/06/24 07:21:31;;;;;;;;;;;19.00;99.90;;;;;;5011067;28;19925;-67
2023/06/24 07:24:03;;;;;;;;;;;19.10;99.90;;;;;;5025238;28;19932;-66
2023/06/24 07:26:35;;;;;;;;;;;19.10;99.90;;;;;;5024558;28;19952;-66
2023/06/24 07:29:07;;;;;;;;;;;19.20;99.90;;;;;;5029135;28;20353;-66
2023/06/24 07:31:39;;;;;;;;;;;19.40;99.90;;;;;;5023161;28;19952;-66
2023/06/24 07:34:10;;;;;;;;;;;19.50;99.90;;;;;;5030854;28;19929;-65
2023/06/24 07:36:42;;;;;;;;;;;19.60;99.90;;;;;;5023335;28;19925;-66
2023/06/24 07:39:09;;;;;;;;;;;19.70;99.90;;;;;;5030246;28;19967;-66
2023/06/24 07:41:42;;;;;;;;;;;19.80;99.90;;;;;;5024514;28;20020;-66
2023/06/24 07:44:09;;;;;;;;;;;19.90;99.90;;;;;;5024464;28;19936;-66
2023/06/24 07:46:41;;;;;;;;;;;20.00;99.90;;;;;;5022427;28;20019;-66
2023/06/24 07:49:12;;;;;;;;;;;20.10;99.90;;;;;;5026068;28;20552;-66
2023/06/24 07:51:45;;;;;;;;;;;20.10;99.90;;;;;;5029044;28;19933;-66
2023/06/24 07:54:16;;;;;;;;;;;20.10;99.90;;;;;;5028659;28;19929;-66
2023/06/24 07:56:43;;;;;;;;;;;20.20;99.90;;;;;;5031050;28;19933;-66
2023/06/24 07:59:15;;;;;;;;;;;20.20;99.90;;;;;;5027932;28;19925;-66
2023/06/24 08:01:47;;;;;;;;;;;20.10;99.90;;;;;;5028377;28;19929;-65
2023/06/24 08:04:18;;;;;;;;;;;20.10;99.90;;;;;;5028699;28;20381;-66
2023/06/24 08:06:50;;;;;;;;;;;20.00;99.90;;;;;;5024597;28;20088;-66
2023/06/24 08:09:17;;;;;;;;;;;20.00;99.90;;;;;;5024110;28;19929;-66
2023/06/24 08:11:49;;;;;;;;;;;20.00;99.90;;;;;;5027302;28;19929;-65
2023/06/24 08:14:21;;;;;;;;;;;19.90;99.90;;;;;;5019408;28;19955;-66
2023/06/24 08:16:52;;;;;;;;;;;19.90;99.90;;;;;;5016188;28;19926;-66
2023/06/24 08:19:24;;;;;;;;;;;19.90;99.90;;;;;;5015272;28;19929;-66
2023/06/24 08:21:56;;;;;;;;;;;20.00;99.90;;;;;;5029048;28;19933;-66
2023/06/24 08:24:28;;;;;;;;;;;20.00;99.90;;;;;;5037206;28;19925;-66
2023/06/24 08:26:59;;;;;;;;;;;20.10;99.90;;;;;;5026489;28;20404;-66
2023/06/24 08:29:32;;;;;;;;;;;20.10;99.90;;;;;;5023998;28;19925;-66
2023/06/24 08:32:06;;;;;;;;;;;20.10;99.90;;;;;;5025858;28;19929;-66
2023/06/24 08:34:38;;;;;;;;;;;20.20;99.90;;;;;;5029028;28;19987;-66
2023/06/24 08:37:10;;;;;;;;;;;20.30;99.90;;;;;;5028671;28;20015;-67
2023/06/24 08:39:38;;;;;;;;;;;20.30;99.90;;;;;;5030900;28;19975;-66
2023/06/24 08:42:10;;;;;;;;;;;20.50;99.90;;;;;;5028839;28;19952;-66
2023/06/24 08:44:42;;;;;;;;;;;20.80;99.90;;;;;;5030108;28;20381;-66
2023/06/24 08:47:09;;;;;;;;;;;21.00;99.90;;;;;;5026728;28;19926;-67
2023/06/24 08:49:46;;;;;;;;;;;21.30;99.90;;;;;;5030490;28;19929;-66
2023/06/24 08:52:18;;;;;;;;;;;21.40;99.90;;;;;;5030639;28;20368;-66
2023/06/24 08:54:50;;;;;;;;;;;21.50;99.90;;;;;;5025577;28;19936;-66
2023/06/24 08:57:23;;;;;;;;;;;21.60;99.90;;;;;;5026741;28;19929;-66
2023/06/24 08:59:55;;;;;;;;;;;21.70;99.90;;;;;;5027225;28;19969;-66
2023/06/24 09:02:27;;;;;;;;;;;21.70;99.90;;;;;;5030958;28;20429;-66
2023/06/24 09:04:59;;;;;;;;;;;21.90;99.90;;;;;;5026370;28;20013;-66
2023/06/24 09:07:31;;;;;;;;;;;22.00;99.90;;;;;;5023347;28;19941;-66
2023/06/24 09:10:03;;;;;;;;;;;22.20;99.90;;;;;;5024981;28;20411;-66
2023/06/24 09:12:35;;;;;;;;;;;22.30;99.90;;;;;;5019752;28;20305;-66
2023/06/24 09:15:14;;;;;;;;;;;22.50;99.90;;;;;;5022113;28;19936;-66
2023/06/24 09:17:48;;;;;;;;;;;22.50;99.90;;;;;;5028075;28;19925;-66
2023/06/24 09:20:22;;;;;;;;;;;22.50;99.90;;;;;;5025165;28;19937;-66
2023/06/24 09:22:57;;;;;;;;;;;22.60;99.90;;;;;;5024980;28;19932;-66
2023/06/24 09:25:25;;;;;;;;;;;22.70;99.90;;;;;;5025741;28;20437;-66
2023/06/24 09:28:03;;;;;;;;;;;22.70;99.90;;;;;;5025386;28;20412;-66
2023/06/24 09:30:34;;;;;;;;;;;22.80;99.90;;;;;;5021503;28;20024;-66
2023/06/24 09:33:10;;;;;;;;;;;23.00;99.90;;;;;;5027241;28;19933;-66
2023/06/24 09:35:42;;;;;;;;;;;23.20;99.90;;;;;;5019272;28;19929;-66
2023/06/24 09:38:31;;;;;;;;;;;23.30;99.90;;;;;;5020569;28;20408;-66
2023/06/24 09:41:04;;;;;;;;;;;23.20;99.90;;;;;;5020550;28;20394;-66
2023/06/24 09:43:36;;;;;;;;;;;23.00;99.90;;;;;;5029749;28;19929;-66
2023/06/24 09:46:08;;;;;;;;;;;23.00;99.90;;;;;;5026538;28;20301;-66
2023/06/24 09:48:40;;;;;;;;;;;23.00;99.90;;;;;;5023415;28;19929;-66
2023/06/24 09:51:13;;;;;;;;;;;23.10;99.90;;;;;;5023625;28;19929;-66
2023/06/24 09:53:45;;;;;;;;;;;23.20;99.90;;;;;;5029104;28;19926;-66
2023/06/24 09:56:17;;;;;;;;;;;23.40;99.90;;;;;;5014183;28;19929;-66
2023/06/24 09:58:49;;;;;;;;;;;23.50;99.90;;;;;;5025981;28;20352;-66
2023/06/24 10:01:22;;;;;;;;;;;23.70;99.90;;;;;;5019318;28;20493;-66
2023/06/24 10:03:53;;;;;;;;;;;23.90;99.90;;;;;;5021472;28;19926;-66
2023/06/24 10:06:26;;;;;;;;;;;24.10;99.90;;;;;;5021377;28;19925;-66
2023/06/24 10:08:58;;;;;;;;;;;24.30;99.90;;;;;;5022566;28;20413;-66
2023/06/24 10:11:30;;;;;;;;;;;24.40;99.90;;;;;;5023514;28;19925;-66
2023/06/24 10:14:02;;;;;;;;;;;24.50;98.90;;;;;;5038766;28;19929;-67
2023/06/24 10:16:34;;;;;;;;;;;24.50;99.90;;;;;;5039864;28;19964;-66
2023/06/24 10:19:05;;;;;;;;;;;24.40;99.40;;;;;;5025751;28;19929;-67
2023/06/24 10:21:44;;;;;;;;;;;24.20;99.90;;;;;;5025556;28;19940;-66
2023/06/24 10:24:37;;;;;;;;;;;24.00;99.90;;;;;;5027385;28;20329;-66
2023/06/24 10:27:13;;;;;;;;;;;23.90;99.90;;;;;;5016477;28;20294;-66
2023/06/24 10:29:46;;;;;;;;;;;23.70;99.50;;;;;;5019357;28;19933;-66
2023/06/24 10:32:21;;;;;;;;;;;23.80;98.90;;;;;;5022172;28;19929;-66
2023/06/24 10:34:56;;;;;;;;;;;23.90;96.90;;;;;;5022995;28;19975;-67
2023/06/24 10:37:25;;;;;;;;;;;24.00;96.30;;;;;;5023706;28;19988;-66
2023/06/24 10:39:57;;;;;;;;;;;24.10;96.50;;;;;;5024426;28;20461;-66
2023/06/24 10:42:30;;;;;;;;;;;24.00;97.30;;;;;;5023423;28;19925;-66
2023/06/24 10:45:11;;;;;;;;;;;23.90;96.20;;;;;;5021424;28;20282;-66
2023/06/24 10:47:43;;;;;;;;;;;24.00;96.80;;;;;;5021826;28;20313;-67
2023/06/24 10:50:16;;;;;;;;;;;24.10;95.50;;;;;;5015180;28;19926;-66
2023/06/24 10:52:49;;;;;;;;;;;24.50;96.10;;;;;;5015192;28;19926;-66
2023/06/24 10:55:16;;;;;;;;;;;24.80;95.20;;;;;;5018776;28;19925;-66
2023/06/24 10:57:48;;;;;;;;;;;25.10;97.60;;;;;;5027244;28;19935;-66
2023/06/24 11:00:20;;;;;;;;;;;25.20;98.20;;;;;;5023150;28;19929;-66
2023/06/24 11:02:52;;;;;;;;;;;25.20;97.80;;;;;;5025496;28;19933;-67
2023/06/24 11:05:27;;;;;;;;;;;25.20;96.80;;;;;;5020994;28;20016;-66
2023/06/24 11:07:53;;;;;;;;;;;24.80;95.80;;;;;;5022499;28;19925;-66
2023/06/24 11:10:25;;;;;;;;;;;24.80;96.50;;;;;;5018325;28;20321;-66
2023/06/24 11:12:52;;;;;;;;;;;24.60;97.60;;;;;;5016314;28;19925;-66
2023/06/24 11:15:24;;;;;;;;;;;24.40;95.60;;;;;;5017195;28;19931;-67
2023/06/24 11:17:56;;;;;;;;;;;24.30;97.20;;;;;;5023837;28;19937;-67
2023/06/24 11:20:23;;;;;;;;;;;24.40;95.80;;;;;;5020667;28;19925;-66
2023/06/24 11:22:49;;;;;;;;;;;24.60;93.30;;;;;;5020137;28;20020;-66
2023/06/24 11:25:21;;;;;;;;;;;24.70;91.40;;;;;;5025299;28;19980;-67
2023/06/24 11:27:54;;;;;;;;;;;24.80;91.60;;;;;;5015882;28;19925;-67
2023/06/24 11:30:26;;;;;;;;;;;25.10;92.90;;;;;;5019870;28;20436;-66
2023/06/24 11:32:59;;;;;;;;;;;25.20;92.80;;;;;;5021429;28;19925;-66
2023/06/24 11:35:35;;;;;;;;;;;25.30;94.30;;;;;;5013329;28;19933;-66
2023/06/24 11:38:08;;;;;;;;;;;25.40;94.40;;;;;;5015325;28;19932;-66
2023/06/24 11:40:40;;;;;;;;;;;25.30;94.20;;;;;;5026852;28;19971;-66
2023/06/24 11:43:12;;;;;;;;;;;25.30;93.60;;;;;;5023057;28;20051;-66
2023/06/24 11:45:47;;;;;;;;;;;25.30;93.80;;;;;;5023548;28;19925;-66
2023/06/24 11:48:14;;;;;;;;;;;25.40;94.80;;;;;;5024356;28;19972;-65
2023/06/24 11:50:52;;;;;;;;;;;25.30;95.10;;;;;;5026004;28;19933;-65
2023/06/24 11:53:31;;;;;;;;;;;25.10;94.30;;;;;;5025377;28;19929;-64
2023/06/24 11:56:03;;;;;;;;;;;24.90;94.40;;;;;;5026005;28;20016;-64
2023/06/24 11:58:37;;;;;;;;;;;24.90;94.40;;;;;;5027530;28;19925;-67
2023/06/24 12:01:09;;;;;;;;;;;25.20;94.60;;;;;;5024413;28;20337;-67
2023/06/24 12:03:41;;;;;;;;;;;25.20;93.40;;;;;;5010699;28;20307;-66
2023/06/24 12:06:13;;;;;;;;;;;25.30;93.50;;;;;;5026981;28;20301;-67
2023/06/24 12:08:39;;;;;;;;;;;25.20;93.80;;;;;;5029570;28;19951;-67
2023/06/24 12:11:11;;;;;;;;;;;25.30;94.90;;;;;;5029171;28;20694;-67
2023/06/24 12:13:38;;;;;;;;;;;25.50;95.10;;;;;;5032003;28;20455;-67
2023/06/24 12:16:04;;;;;;;;;;;25.70;92.40;;;;;;5027353;28;19929;-67
2023/06/24 12:18:36;;;;;;;;;;;25.90;92.20;;;;;;5028616;28;19935;-67
2023/06/24 12:21:03;;;;;;;;;;;26.00;91.70;;;;;;5030934;28;19925;-67
2023/06/24 12:23:35;;;;;;;;;;;26.10;91.60;;;;;;5031199;28;19928;-67
2023/06/24 12:26:07;;;;;;;;;;;26.20;90.10;;;;;;5024499;28;19929;-67
2023/06/24 12:28:39;;;;;;;;;;;26.20;89.50;;;;;;5027397;28;20044;-67
2023/06/24 12:31:11;;;;;;;;;;;26.20;89.10;;;;;;5024754;28;19933;-67
2023/06/24 12:33:42;;;;;;;;;;;26.10;88.00;;;;;;5027843;28;19929;-67
2023/06/24 12:36:14;;;;;;;;;;;26.10;86.20;;;;;;5028988;28;19932;-67
2023/06/24 12:38:46;;;;;;;;;;;26.20;87.40;;;;;;5028868;28;19933;-67
2023/06/24 12:41:13;;;;;;;;;;;26.50;90.60;;;;;;5030252;28;19929;-67
2023/06/24 12:43:44;;;;;;;;;;;26.80;89.80;;;;;;5027820;28;20313;-67
2023/06/24 12:46:11;;;;;;;;;;;27.00;88.30;;;;;;5030520;28;19929;-67
2023/06/24 12:48:43;;;;;;;;;;;27.00;85.60;;;;;;5031139;28;19925;-67
2023/06/24 12:51:10;;;;;;;;;;;26.90;86.90;;;;;;5027736;28;20340;-67
2023/06/24 12:53:42;;;;;;;;;;;26.80;87.00;;;;;;5008645;28;19952;-67
2023/06/24 12:56:09;;;;;;;;;;;26.70;85.10;;;;;;5025857;28;19939;-67
2023/06/24 12:58:36;;;;;;;;;;;26.70;85.00;;;;;;5026432;28;19925;-67
2023/06/24 13:01:08;;;;;;;;;;;26.70;85.70;;;;;;5027640;28;19929;-67
2023/06/24 13:03:39;;;;;;;;;;;26.70;82.10;;;;;;5029220;28;19982;-67
2023/06/24 13:06:11;;;;;;;;;;;26.80;84.40;;;;;;5027487;28;19929;-67
2023/06/24 13:08:43;;;;;;;;;;;27.10;83.20;;;;;;5030262;28;19933;-68
2023/06/24 13:11:15;;;;;;;;;;;27.40;83.20;;;;;;5032160;28;19929;-67
2023/06/24 13:13:47;;;;;;;;;;;27.60;80.90;;;;;;5026950;28;20368;-67
2023/06/24 13:16:19;;;;;;;;;;;27.80;83.30;;;;;;5022297;28;20023;-67
2023/06/24 13:18:51;;;;;;;;;;;27.70;80.80;;;;;;5028402;28;20464;-67
2023/06/24 13:21:23;;;;;;;;;;;27.40;81.10;;;;;;5027842;28;19964;-67
2023/06/24 13:23:50;;;;;;;;;;;27.20;81.30;;;;;;5025088;28;20396;-67
2023/06/24 13:26:22;;;;;;;;;;;27.20;80.30;;;;;;5029814;28;20385;-67
2023/06/24 13:28:54;;;;;;;;;;;27.30;79.40;;;;;;5029824;28;19940;-67
2023/06/24 13:31:21;;;;;;;;;;;27.60;80.10;;;;;;5030029;28;19925;-67
2023/06/24 13:33:48;;;;;;;;;;;27.80;75.10;;;;;;5029241;28;19925;-67
2023/06/24 13:36:29;;;;;;;;;;;27.80;74.60;;;;;;5026477;28;20420;-67
2023/06/24 13:39:02;;;;;;;;;;;27.90;74.70;;;;;;5041063;28;19929;-67
2023/06/24 13:41:34;;;;;;;;;;;28.20;75.80;;;;;;5026816;28;19940;-67
2023/06/24 13:44:06;;;;;;;;;;;28.30;73.00;;;;;;5023775;28;19924;-67
2023/06/24 13:46:37;;;;;;;;;;;28.50;73.20;;;;;;5027623;28;20316;-67
2023/06/24 13:49:09;;;;;;;;;;;28.80;70.30;;;;;;5022791;28;19936;-67
2023/06/24 13:51:42;;;;;;;;;;;29.00;70.20;;;;;;5025525;28;19925;-67
2023/06/24 13:54:13;;;;;;;;;;;28.90;71.00;;;;;;5027545;28;20460;-67
2023/06/24 13:56:45;;;;;;;;;;;28.70;71.40;;;;;;5024159;28;19925;-67
2023/06/24 13:59:17;;;;;;;;;;;28.70;70.50;;;;;;5028918;28;19929;-68
2023/06/24 14:01:49;;;;;;;;;;;28.70;71.60;;;;;;5018693;28;19933;-67
2023/06/24 14:04:21;;;;;;;;;;;28.60;69.10;;;;;;5019725;28;19929;-67
2023/06/24 14:06:55;;;;;;;;;;;28.70;69.50;;;;;;5007729;28;21232;-67
2023/06/24 14:09:26;;;;;;;;;;;28.60;70.00;;;;;;5010886;28;20297;-67
2023/06/24 14:11:58;;;;;;;;;;;28.60;67.60;;;;;;5015017;28;19929;-67
2023/06/24 14:14:30;;;;;;;;;;;28.60;68.10;;;;;;5017683;28;19952;-67
2023/06/24 14:17:02;;;;;;;;;;;28.90;69.20;;;;;;5025483;28;20298;-67
2023/06/24 14:19:29;;;;;;;;;;;29.10;67.80;;;;;;5024307;28;20416;-68
2023/06/24 14:21:57;;;;;;;;;;;29.30;68.80;;;;;;5022412;28;19929;-67
2023/06/24 14:24:28;;;;;;;;;;;29.00;68.60;;;;;;5022917;28;20039;-67
2023/06/24 14:27:00;;;;;;;;;;;28.70;70.20;;;;;;5019303;28;19964;-67
2023/06/24 14:29:32;;;;;;;;;;;28.70;70.20;;;;;;5027937;28;19932;-67
2023/06/24 14:32:04;;;;;;;;;;;28.70;69.40;;;;;;5026985;28;19925;-67
2023/06/24 14:34:35;;;;;;;;;;;28.80;67.00;;;;;;5014863;28;20009;-67
2023/06/24 14:37:03;;;;;;;;;;;28.80;66.90;;;;;;5018686;28;19925;-67
2023/06/24 14:39:34;;;;;;;;;;;29.00;64.60;;;;;;5027563;28;19929;-67
2023/06/24 14:42:06;;;;;;;;;;;28.90;64.50;;;;;;5023393;28;20016;-67